Time;durP1;ratioP1;P1;durP2;ratioP2;P2;SDS_P1;SDS_P2;PMS_P1;PMS_P2;Temp;Humidity;BMP_temperature;BMP_pressure;BME280_temperature;BME280_humidity;BME280_pressure;Samples;Min_cycle;Max_cycle;Signal;HPM_P1;HPM_P2
2021/08/02 00:00:20;;;;;;;10.20;7.20;;;16.80;99.90;;;;;;5227029;28;20606;-63
2021/08/02 00:03:18;;;;;;;9.32;7.07;;;16.80;99.90;;;;;;5228897;28;20216;-66
2021/08/02 00:05:54;;;;;;;10.50;6.30;;;16.80;99.90;;;;;;5228220;28;20722;-64
2021/08/02 00:08:27;;;;;;;8.43;6.33;;;16.70;99.90;;;;;;5228884;28;20476;-65
2021/08/02 00:11:00;;;;;;;8.23;6.00;;;16.80;99.90;;;;;;5228953;28;20197;-66
2021/08/02 00:13:35;;;;;;;8.33;6.00;;;16.70;99.90;;;;;;5225749;28;20206;-65
2021/08/02 00:16:10;;;;;;;7.13;6.10;;;16.80;99.90;;;;;;5228628;28;20209;-69
2021/08/02 00:18:42;;;;;;;8.27;5.70;;;16.80;99.90;;;;;;5228786;28;20201;-66
2021/08/02 00:21:14;;;;;;;6.80;6.03;;;16.70;99.90;;;;;;5225349;28;20517;-64
2021/08/02 00:23:46;;;;;;;7.20;5.27;;;16.70;99.90;;;;;;5228070;28;20618;-63
2021/08/02 00:26:20;;;;;;;8.80;5.17;;;16.70;99.90;;;;;;5228589;28;20225;-63
2021/08/02 00:28:53;;;;;;;6.80;5.57;;;16.70;99.90;;;;;;5228387;28;20204;-63
2021/08/02 00:31:26;;;;;;;7.82;6.40;;;16.70;99.90;;;;;;5228383;28;20198;-64
2021/08/02 00:33:58;;;;;;;10.57;5.82;;;16.70;99.90;;;;;;5228720;28;20198;-64
2021/08/02 00:36:39;;;;;;;7.53;5.20;;;16.70;99.90;;;;;;5227998;28;20201;-67
2021/08/02 00:39:20;;;;;;;6.80;5.38;;;16.70;99.90;;;;;;5225551;28;20216;-65
2021/08/02 00:42:31;;;;;;;8.53;5.50;;;16.60;99.90;;;;;;5225456;28;20252;-65
2021/08/02 00:45:20;;;;;;;8.63;5.80;;;16.60;99.90;;;;;;5227225;28;20255;-63
2021/08/02 00:48:17;;;;;;;7.40;4.97;;;16.60;99.90;;;;;;5225852;28;20533;-63
2021/08/02 00:50:50;;;;;;;7.10;4.93;;;16.50;99.90;;;;;;5224636;28;20228;-66
2021/08/02 00:53:27;;;;;;;8.55;4.90;;;16.50;99.90;;;;;;5228386;28;20237;-67
2021/08/02 00:56:02;;;;;;;7.28;5.25;;;16.40;99.90;;;;;;5227118;28;20205;-66
2021/08/02 00:58:39;;;;;;;5.95;4.78;;;16.40;99.90;;;;;;5227133;28;20672;-68
2021/08/02 01:01:12;;;;;;;9.53;5.37;;;16.40;99.90;;;;;;5228140;28;20640;-66
2021/08/02 01:03:45;;;;;;;9.53;5.30;;;16.30;99.90;;;;;;5227162;28;20217;-66
2021/08/02 01:06:19;;;;;;;5.97;4.80;;;16.30;99.90;;;;;;5228310;28;20236;-67
2021/08/02 01:08:52;;;;;;;7.67;5.10;;;16.30;99.90;;;;;;5227892;28;20659;-65
2021/08/02 01:11:26;;;;;;;6.60;5.32;;;16.30;99.90;;;;;;5232736;28;20197;-66
2021/08/02 01:14:01;;;;;;;7.30;5.03;;;16.20;99.90;;;;;;5226728;28;20225;-65
2021/08/02 01:16:37;;;;;;;5.10;4.50;;;16.20;99.90;;;;;;5225935;28;20326;-66
2021/08/02 01:19:11;;;;;;;6.68;5.10;;;16.20;99.90;;;;;;5231843;28;20643;-65
2021/08/02 01:21:45;;;;;;;8.23;5.65;;;16.10;99.90;;;;;;5214596;28;20213;-64
2021/08/02 01:24:17;;;;;;;5.93;5.23;;;16.10;99.90;;;;;;5233307;28;20225;-64
2021/08/02 01:26:49;;;;;;;9.45;5.57;;;16.10;99.90;;;;;;5231010;28;20628;-65
2021/08/02 01:30:01;;;;;;;9.70;5.43;;;16.10;99.90;;;;;;5231471;28;20229;-63
2021/08/02 01:32:33;;;;;;;7.97;6.20;;;16.10;99.90;;;;;;5224122;28;20198;-66
2021/08/02 01:35:09;;;;;;;6.43;5.05;;;16.00;99.90;;;;;;5231894;28;20601;-64
2021/08/02 01:37:43;;;;;;;5.63;5.03;;;16.00;99.90;;;;;;5232309;28;20596;-64
2021/08/02 01:40:17;;;;;;;7.57;5.60;;;16.00;99.90;;;;;;5232097;28;20279;-63
2021/08/02 01:42:51;;;;;;;6.57;5.10;;;15.90;99.90;;;;;;5230680;28;20205;-64
2021/08/02 01:45:24;;;;;;;6.77;5.00;;;15.90;99.90;;;;;;5232034;28;20674;-66
2021/08/02 01:49:05;;;;;;;7.00;5.20;;;15.80;99.90;;;;;;5232076;28;20739;-70
2021/08/02 01:51:51;;;;;;;5.87;4.50;;;15.80;99.90;;;;;;5224489;28;20220;-64
2021/08/02 01:54:28;;;;;;;7.70;5.33;;;15.80;99.90;;;;;;5231958;28;20237;-62
2021/08/02 01:57:27;;;;;;;6.30;5.30;;;15.80;99.90;;;;;;5230504;28;20295;-65
2021/08/02 02:00:13;;;;;;;6.23;5.10;;;15.70;99.90;;;;;;5231423;28;20239;-64
2021/08/02 02:02:57;;;;;;;5.83;5.10;;;15.70;99.90;;;;;;5231924;28;20605;-65
2021/08/02 02:05:39;;;;;;;8.30;5.23;;;15.70;99.90;;;;;;5231764;28;20301;-64
2021/08/02 02:08:18;;;;;;;5.63;4.73;;;15.70;99.90;;;;;;5231666;28;20604;-65
2021/08/02 02:10:57;;;;;;;5.77;4.97;;;15.60;99.90;;;;;;5230320;28;20233;-65
2021/08/02 02:13:36;;;;;;;6.73;4.67;;;15.60;99.90;;;;;;5230694;28;20526;-63
2021/08/02 02:16:09;;;;;;;5.73;5.03;;;15.60;99.90;;;;;;5231349;28;20233;-64
2021/08/02 02:18:49;;;;;;;7.40;4.87;;;15.60;99.90;;;;;;5231298;28;20292;-67
2021/08/02 02:21:25;;;;;;;7.27;5.03;;;15.60;99.90;;;;;;5231179;28;20237;-66
2021/08/02 02:23:58;;;;;;;6.73;5.27;;;15.60;99.90;;;;;;5213926;28;20224;-68
2021/08/02 02:26:35;;;;;;;6.83;4.93;;;15.50;99.90;;;;;;5230276;28;20551;-66
2021/08/02 02:29:11;;;;;;;7.40;5.70;;;15.50;99.90;;;;;;5230953;28;20201;-63
2021/08/02 02:31:46;;;;;;;6.90;5.07;;;15.50;99.90;;;;;;5234544;28;20211;-63
2021/08/02 02:34:19;;;;;;;6.63;5.03;;;15.40;99.90;;;;;;5230830;28;20186;-64
2021/08/02 02:36:52;;;;;;;8.83;5.70;;;15.40;99.90;;;;;;5231449;28;20205;-63
2021/08/02 02:39:27;;;;;;;7.80;5.50;;;15.40;99.90;;;;;;5231847;28;20213;-65
2021/08/02 02:42:01;;;;;;;7.93;5.53;;;15.30;99.90;;;;;;5231213;28;20311;-65
2021/08/02 02:44:36;;;;;;;7.00;5.43;;;15.30;99.90;;;;;;5231095;28;20206;-64
2021/08/02 02:47:08;;;;;;;7.83;5.10;;;15.20;99.90;;;;;;5230039;28;20229;-63
2021/08/02 02:49:44;;;;;;;9.47;5.87;;;15.30;99.90;;;;;;5229775;28;20516;-64
2021/08/02 02:52:17;;;;;;;7.30;5.57;;;15.30;99.90;;;;;;5230461;28;20185;-64
2021/08/02 02:54:51;;;;;;;7.20;5.90;;;15.20;99.90;;;;;;5230053;28;20212;-66
2021/08/02 02:57:24;;;;;;;7.73;5.73;;;15.20;99.90;;;;;;5229593;28;20287;-67
2021/08/02 02:59:56;;;;;;;8.23;5.70;;;15.20;99.90;;;;;;5229589;28;20205;-68
2021/08/02 03:02:28;;;;;;;9.23;6.03;;;15.20;99.90;;;;;;5232762;28;20247;-66
2021/08/02 03:05:01;;;;;;;8.60;6.00;;;15.10;99.90;;;;;;5229400;28;20216;-66
2021/08/02 03:07:38;;;;;;;7.83;6.00;;;15.10;99.90;;;;;;5230529;28;20563;-68
2021/08/02 03:10:12;;;;;;;8.93;5.80;;;15.10;99.90;;;;;;5230004;28;20644;-65
2021/08/02 03:12:48;;;;;;;7.97;5.40;;;15.10;99.90;;;;;;5230321;28;20213;-64
2021/08/02 03:15:20;;;;;;;8.57;6.20;;;15.10;99.90;;;;;;5229840;28;20531;-63
2021/08/02 03:17:54;;;;;;;7.20;5.90;;;15.10;99.90;;;;;;5229156;28;20205;-65
2021/08/02 03:20:28;;;;;;;7.97;6.20;;;15.10;99.90;;;;;;5229302;28;20220;-67
2021/08/02 03:23:08;;;;;;;8.07;6.20;;;15.10;99.90;;;;;;5229334;28;20262;-65
2021/08/02 03:25:58;;;;;;;9.20;6.67;;;15.20;99.90;;;;;;5229809;28;20217;-64
2021/08/02 03:28:43;;;;;;;8.70;6.80;;;15.20;99.90;;;;;;5229391;28;20196;-66
2021/08/02 03:31:30;;;;;;;7.20;6.07;;;15.20;99.90;;;;;;5229889;28;20201;-64
2021/08/02 03:34:06;;;;;;;10.87;6.90;;;15.20;99.90;;;;;;5229874;28;20267;-65
2021/08/02 03:36:41;;;;;;;7.90;6.40;;;15.20;99.90;;;;;;5228921;28;20212;-63
2021/08/02 03:39:16;;;;;;;8.37;6.27;;;15.30;99.90;;;;;;5229295;28;20546;-65
2021/08/02 03:41:51;;;;;;;8.00;6.30;;;15.30;99.90;;;;;;5228330;28;20209;-68
2021/08/02 03:44:25;;;;;;;8.00;6.13;;;15.30;99.90;;;;;;5229529;28;20213;-66
2021/08/02 03:46:57;;;;;;;10.87;6.90;;;15.40;99.90;;;;;;5229584;28;20229;-67
2021/08/02 03:49:30;;;;;;;8.43;6.73;;;15.40;99.90;;;;;;5228162;28;20197;-63
2021/08/02 03:52:02;;;;;;;7.53;6.27;;;15.40;99.90;;;;;;5229300;28;20216;-64
2021/08/02 03:54:36;;;;;;;8.67;6.23;;;15.40;99.90;;;;;;5228522;28;20190;-63
2021/08/02 03:57:09;;;;;;;7.93;6.37;;;15.50;99.90;;;;;;5228147;28;20248;-65
2021/08/02 03:59:42;;;;;;;9.37;5.80;;;15.50;99.90;;;;;;5229422;28;20212;-63
2021/08/02 04:02:14;;;;;;;8.03;5.60;;;15.50;99.90;;;;;;5229636;28;20279;-64
2021/08/02 04:04:49;;;;;;;7.57;5.03;;;15.50;99.90;;;;;;5228384;28;20334;-63
2021/08/02 04:07:21;;;;;;;6.37;5.50;;;15.60;99.90;;;;;;5228010;28;20231;-65
2021/08/02 04:09:52;;;;;;;5.53;4.73;;;15.60;99.90;;;;;;5228069;28;20208;-64
2021/08/02 04:12:25;;;;;;;6.93;5.33;;;15.60;99.90;;;;;;5228026;28;20205;-64
2021/08/02 04:14:59;;;;;;;6.43;4.97;;;15.60;99.90;;;;;;5228380;28;20216;-65
2021/08/02 04:17:34;;;;;;;7.80;5.00;;;15.60;99.90;;;;;;5228170;28;20208;-66
2021/08/02 04:20:09;;;;;;;6.20;5.53;;;15.60;99.90;;;;;;5227929;28;20201;-66
2021/08/02 04:22:45;;;;;;;7.33;4.93;;;15.60;99.90;;;;;;5229293;28;20220;-65
2021/08/02 04:25:17;;;;;;;8.23;5.00;;;15.60;99.90;;;;;;5228195;28;20649;-62
2021/08/02 04:27:49;;;;;;;6.13;4.63;;;15.60;99.90;;;;;;5228726;28;20225;-65
2021/08/02 04:30:24;;;;;;;7.57;5.57;;;15.60;99.90;;;;;;5228174;28;20185;-64
2021/08/02 04:32:55;;;;;;;6.17;4.50;;;15.70;99.90;;;;;;5228510;28;20200;-64
2021/08/02 04:35:30;;;;;;;6.33;4.97;;;15.70;99.90;;;;;;5228077;28;20613;-64
2021/08/02 04:38:02;;;;;;;7.67;4.53;;;15.70;99.90;;;;;;5228363;28;20595;-63
2021/08/02 04:40:34;;;;;;;7.57;4.90;;;15.80;99.90;;;;;;5228948;28;20533;-67
2021/08/02 04:43:07;;;;;;;6.37;4.30;;;15.80;99.90;;;;;;5228859;28;20209;-66
2021/08/02 04:45:39;;;;;;;5.77;4.60;;;15.90;99.90;;;;;;5227810;28;20201;-64
2021/08/02 04:48:10;;;;;;;8.23;5.00;;;15.90;99.90;;;;;;5228522;28;20202;-64
2021/08/02 04:50:44;;;;;;;7.33;4.53;;;16.00;99.90;;;;;;5228858;28;20205;-66
2021/08/02 04:53:16;;;;;;;7.30;4.80;;;16.00;99.90;;;;;;5232011;28;20536;-67
2021/08/02 04:55:51;;;;;;;8.07;5.00;;;16.10;99.90;;;;;;5232892;28;20261;-63
2021/08/02 04:58:23;;;;;;;5.30;4.60;;;16.10;99.90;;;;;;5231577;28;20252;-66
2021/08/02 05:00:54;;;;;;;7.10;4.50;;;16.20;99.90;;;;;;5231577;28;20209;-63
2021/08/02 05:03:26;;;;;;;6.00;4.50;;;16.30;99.90;;;;;;5233263;28;20235;-65
2021/08/02 05:05:59;;;;;;;7.40;5.30;;;16.40;99.90;;;;;;5232207;28;20225;-63
2021/08/02 05:08:33;;;;;;;6.00;4.53;;;16.50;99.90;;;;;;5233709;28;20531;-64
2021/08/02 05:11:08;;;;;;;4.67;3.77;;;16.50;99.90;;;;;;5233785;28;20530;-64
2021/08/02 05:13:47;;;;;;;5.20;3.60;;;16.60;99.90;;;;;;5232923;28;20209;-66
2021/08/02 05:16:23;;;;;;;6.57;3.90;;;16.60;99.90;;;;;;5233076;28;20225;-63
2021/08/02 05:18:55;;;;;;;4.70;3.53;;;16.70;99.90;;;;;;5232570;28;20554;-63
2021/08/02 05:21:30;;;;;;;4.43;3.83;;;16.80;99.90;;;;;;5231327;28;20632;-65
2021/08/02 05:24:03;;;;;;;6.28;4.07;;;16.90;99.90;;;;;;5231264;28;20193;-65
2021/08/02 05:26:39;;;;;;;5.70;3.55;;;17.10;99.90;;;;;;5230870;28;20209;-65
2021/08/02 05:29:11;;;;;;;5.20;4.10;;;17.30;99.90;;;;;;5231216;28;20201;-64
2021/08/02 05:31:43;;;;;;;5.63;4.33;;;17.40;99.90;;;;;;5230598;28;20194;-65
2021/08/02 05:34:15;;;;;;;7.80;4.32;;;17.70;99.90;;;;;;5231671;28;20190;-63
2021/08/02 05:36:49;;;;;;;6.03;3.75;;;17.70;99.90;;;;;;5230837;28;20244;-67
2021/08/02 05:39:21;;;;;;;5.72;3.80;;;17.80;99.90;;;;;;5231559;28;20271;-65
2021/08/02 05:41:55;;;;;;;7.95;3.53;;;17.70;99.90;;;;;;5232591;28;20217;-63
2021/08/02 05:44:27;;;;;;;5.30;3.60;;;17.70;99.90;;;;;;5231160;28;20583;-60
2021/08/02 05:47:00;;;;;;;6.45;3.85;;;17.60;99.90;;;;;;5232173;28;20542;-65
2021/08/02 05:49:32;;;;;;;5.80;3.35;;;17.60;99.90;;;;;;5231543;28;20212;-63
2021/08/02 05:52:09;;;;;;;5.80;3.90;;;17.50;99.90;;;;;;5231826;28;20201;-64
2021/08/02 05:54:41;;;;;;;5.20;3.10;;;17.50;99.90;;;;;;5230975;28;20212;-65
2021/08/02 05:57:19;;;;;;;3.90;2.90;;;17.40;99.90;;;;;;5213977;28;20300;-63
2021/08/02 05:59:53;;;;;;;4.95;3.22;;;17.40;99.90;;;;;;5231102;28;20259;-65
2021/08/02 06:02:25;;;;;;;8.60;3.10;;;17.50;99.90;;;;;;5231402;28;20223;-67
2021/08/02 06:04:58;;;;;;;5.35;2.90;;;17.40;99.90;;;;;;5231886;28;20220;-66
2021/08/02 06:07:30;;;;;;;6.35;3.55;;;17.30;99.90;;;;;;5231175;28;20229;-65
2021/08/02 06:10:02;;;;;;;6.07;3.20;;;17.30;99.90;;;;;;5230477;28;20212;-63
2021/08/02 06:12:35;;;;;;;5.38;3.05;;;17.30;99.90;;;;;;5231826;28;20397;-64
2021/08/02 06:15:08;;;;;;;5.95;3.25;;;17.50;99.90;;;;;;5231192;28;20215;-68
2021/08/02 06:17:40;;;;;;;5.57;3.50;;;17.60;99.90;;;;;;5213804;28;20231;-62
2021/08/02 06:20:13;;;;;;;8.43;3.20;;;17.90;99.90;;;;;;5231346;28;20305;-64
2021/08/02 06:22:47;;;;;;;4.38;2.97;;;18.10;99.90;;;;;;5229710;28;20680;-66
2021/08/02 06:25:19;;;;;;;5.43;2.63;;;18.60;99.90;;;;;;5231259;28;20581;-67
2021/08/02 06:27:51;;;;;;;5.13;2.53;;;19.20;99.90;;;;;;5229800;28;20213;-65
2021/08/02 06:30:24;;;;;;;5.40;2.28;;;19.80;99.90;;;;;;5230276;28;20202;-68
2021/08/02 06:32:56;;;;;;;4.55;1.85;;;20.60;99.90;;;;;;5213982;28;20656;-70
2021/08/02 06:35:33;;;;;;;4.93;1.75;;;22.20;99.90;;;;;;5213970;28;20201;-67
2021/08/02 06:38:05;;;;;;;4.60;1.42;;;24.20;99.90;;;;;;5229719;28;20239;-66
2021/08/02 06:40:37;;;;;;;4.25;1.23;;;25.90;99.90;;;;;;5246449;28;20212;-62
2021/08/02 06:43:09;;;;;;;3.72;1.50;;;26.40;99.90;;;;;;5229572;28;20719;-64
2021/08/02 06:45:41;;;;;;;4.32;1.30;;;26.10;99.90;;;;;;5246422;28;20213;-67
2021/08/02 06:48:13;;;;;;;2.35;1.25;;;25.10;99.90;;;;;;5231084;28;20695;-58
2021/08/02 06:50:46;;;;;;;2.85;1.23;;;24.40;99.90;;;;;;5229645;28;20216;-64
2021/08/02 06:53:22;;;;;;;4.30;1.15;;;24.60;99.90;;;;;;5229598;28;20310;-65
2021/08/02 06:55:57;;;;;;;2.85;1.00;;;25.70;99.90;;;;;;5231183;28;20590;-66
2021/08/02 06:58:31;;;;;;;4.10;1.20;;;26.70;99.90;;;;;;5229281;28;20335;-64
2021/08/02 07:01:03;;;;;;;5.50;1.30;;;27.40;99.90;;;;;;5213668;28;20204;-57
2021/08/02 07:03:36;;;;;;;2.75;1.20;;;28.20;99.50;;;;;;5230678;28;20596;-58
2021/08/02 07:06:08;;;;;;;3.65;1.20;;;28.80;95.50;;;;;;5245912;28;20244;-57
2021/08/02 07:08:40;;;;;;;3.63;0.82;;;29.10;94.30;;;;;;5230250;28;20237;-58
2021/08/02 07:11:13;;;;;;;5.45;1.10;;;28.70;94.70;;;;;;5230199;28;20232;-57
2021/08/02 07:13:45;;;;;;;2.42;1.00;;;28.00;94.00;;;;;;5230464;28;20226;-58
2021/08/02 07:16:17;;;;;;;4.60;1.02;;;28.00;93.90;;;;;;5228431;28;20263;-55
2021/08/02 07:18:53;;;;;;;2.85;1.02;;;28.00;92.60;;;;;;5229399;28;20229;-57
2021/08/02 07:21:25;;;;;;;2.25;0.73;;;27.50;93.40;;;;;;5228975;28;20216;-55
2021/08/02 07:23:57;;;;;;;2.33;0.95;;;28.00;92.70;;;;;;5229100;28;20244;-58
2021/08/02 07:26:31;;;;;;;2.65;0.85;;;27.80;91.10;;;;;;5229714;28;20237;-58
2021/08/02 07:29:04;;;;;;;1.88;0.80;;;27.60;90.90;;;;;;5228574;28;20220;-59
2021/08/02 07:31:38;;;;;;;4.25;0.98;;;28.00;91.10;;;;;;5229737;28;20300;-53
2021/08/02 07:34:10;;;;;;;3.15;0.70;;;28.20;90.30;;;;;;5229533;28;20220;-57
2021/08/02 07:36:44;;;;;;;4.32;0.90;;;28.30;89.60;;;;;;5229607;28;20205;-51
2021/08/02 07:39:16;;;;;;;2.72;1.00;;;28.20;88.20;;;;;;5228933;28;20276;-57
2021/08/02 07:41:51;;;;;;;1.73;1.10;;;27.50;90.20;;;;;;5229917;28;20270;-55
2021/08/02 07:44:26;;;;;;;3.13;0.88;;;26.10;93.60;;;;;;5229246;28;20672;-50
2021/08/02 07:47:00;;;;;;;2.42;0.90;;;25.70;95.60;;;;;;5229456;28;20223;-56
2021/08/02 07:49:35;;;;;;;2.75;0.88;;;25.20;96.20;;;;;;5229860;28;20637;-55
2021/08/02 07:52:07;;;;;;;3.15;1.10;;;24.80;98.10;;;;;;5229722;28;20296;-56
2021/08/02 07:54:39;;;;;;;3.40;1.10;;;24.40;99.60;;;;;;5228384;28;20232;-54
2021/08/02 07:57:11;;;;;;;3.08;1.10;;;24.40;99.90;;;;;;5211968;28;20244;-52
2021/08/02 07:59:46;;;;;;;4.32;0.90;;;24.20;99.90;;;;;;5229405;28;20236;-58
2021/08/02 08:02:18;;;;;;;5.28;1.10;;;23.80;99.90;;;;;;5228597;28;20262;-60
2021/08/02 08:04:51;;;;;;;3.40;1.17;;;23.70;99.90;;;;;;5228539;28;20316;-54
2021/08/02 08:07:23;;;;;;;2.97;0.80;;;23.80;99.90;;;;;;5212042;28;20248;-59
2021/08/02 08:09:55;;;;;;;3.20;1.13;;;23.90;99.90;;;;;;5228842;28;20240;-62
2021/08/02 08:12:29;;;;;;;2.42;1.05;;;23.70;99.90;;;;;;5228959;28;20218;-56
2021/08/02 08:15:04;;;;;;;3.60;1.00;;;23.40;99.90;;;;;;5207348;28;20229;-55
2021/08/02 08:17:37;;;;;;;2.55;1.08;;;23.40;99.90;;;;;;5207077;28;20205;-55
2021/08/02 08:20:11;;;;;;;4.13;1.10;;;23.40;99.90;;;;;;5224453;28;20299;-55
2021/08/02 08:22:43;;;;;;;3.28;1.00;;;23.40;99.90;;;;;;5223557;28;20209;-54
2021/08/02 08:25:16;;;;;;;3.13;0.90;;;23.30;99.90;;;;;;5209577;28;20230;-55
2021/08/02 08:27:51;;;;;;;3.38;1.13;;;23.00;99.90;;;;;;5209342;28;20230;-58
2021/08/02 08:30:23;;;;;;;5.45;1.13;;;22.80;99.90;;;;;;5207710;28;20641;-58
2021/08/02 08:32:57;;;;;;;3.53;1.30;;;22.30;99.90;;;;;;5208090;28;20610;-56
2021/08/02 08:35:30;;;;;;;2.13;1.10;;;22.00;99.90;;;;;;5221286;28;20285;-57
2021/08/02 08:38:01;;;;;;;3.22;1.10;;;21.70;99.90;;;;;;5247035;28;20218;-59
2021/08/02 08:40:35;;;;;;;4.93;1.20;;;21.60;99.90;;;;;;5228071;28;20229;-59
2021/08/02 08:43:07;;;;;;;4.63;1.40;;;21.40;99.90;;;;;;5227944;28;20225;-54
2021/08/02 08:45:42;;;;;;;5.18;1.20;;;21.30;99.90;;;;;;5227768;28;20751;-61
2021/08/02 08:48:14;;;;;;;4.13;1.20;;;21.30;99.90;;;;;;5227846;28;20228;-63
2021/08/02 08:50:47;;;;;;;2.78;1.10;;;21.30;99.90;;;;;;5229324;28;20252;-58
2021/08/02 08:53:21;;;;;;;3.75;1.20;;;21.10;99.90;;;;;;5237741;28;20223;-61
2021/08/02 08:55:56;;;;;;;6.20;1.30;;;21.10;99.90;;;;;;5234727;28;20557;-61
2021/08/02 08:58:31;;;;;;;5.15;1.20;;;21.10;99.90;;;;;;5231378;28;20241;-57
2021/08/02 09:01:05;;;;;;;5.95;1.20;;;21.20;99.90;;;;;;5240174;28;20201;-54
2021/08/02 09:03:37;;;;;;;3.97;1.10;;;21.40;99.90;;;;;;5236499;28;20520;-56
2021/08/02 09:06:09;;;;;;;3.58;0.90;;;21.70;99.90;;;;;;5244524;28;20533;-56
2021/08/02 09:08:45;;;;;;;4.18;1.17;;;22.00;99.90;;;;;;5228274;28;20228;-56
2021/08/02 09:11:22;;;;;;;2.67;0.90;;;22.20;99.90;;;;;;5236939;28;20196;-63
2021/08/02 09:13:57;;;;;;;1.42;0.80;;;22.50;99.90;;;;;;5248881;28;20208;-57
2021/08/02 09:16:31;;;;;;;2.38;1.00;;;22.60;99.90;;;;;;5230291;28;20240;-55
2021/08/02 09:19:12;;;;;;;4.10;1.35;;;22.70;99.90;;;;;;5232401;28;20235;-57
2021/08/02 09:21:54;;;;;;;4.22;1.20;;;22.80;99.90;;;;;;5240716;28;20605;-56
2021/08/02 09:24:31;;;;;;;3.72;1.20;;;22.80;99.90;;;;;;5232665;28;20223;-56
2021/08/02 09:27:04;;;;;;;4.10;1.25;;;22.70;99.90;;;;;;5241291;28;20240;-59
2021/08/02 09:29:36;;;;;;;3.08;1.20;;;22.60;99.90;;;;;;5226739;28;20190;-58
2021/08/02 09:32:09;;;;;;;3.97;1.02;;;22.80;99.90;;;;;;5242821;28;20208;-56
2021/08/02 09:34:46;;;;;;;2.03;0.93;;;22.90;99.90;;;;;;5232344;28;20213;-63
2021/08/02 09:37:27;;;;;;;5.25;1.08;;;23.00;99.90;;;;;;5235056;28;20220;-56
2021/08/02 09:40:06;;;;;;;2.38;1.00;;;23.00;99.50;;;;;;5252810;28;20208;-56
2021/08/02 09:42:38;;;;;;;5.22;1.20;;;22.60;97.30;;;;;;5252409;28;20672;-50
2021/08/02 09:45:43;;;;;;;3.75;1.10;;;22.30;99.10;;;;;;5235186;28;20266;-57
2021/08/02 09:48:15;;;;;;;1.83;0.90;;;22.20;99.90;;;;;;5231833;28;20268;-54
2021/08/02 09:50:49;;;;;;;3.35;0.82;;;22.30;99.70;;;;;;5247561;28;20204;-53
2021/08/02 09:53:21;;;;;;;1.67;0.93;;;22.40;99.10;;;;;;5241027;28;20221;-48
2021/08/02 09:55:54;;;;;;;0.95;0.70;;;22.60;98.40;;;;;;5251149;28;20652;-53
2021/08/02 09:58:27;;;;;;;1.20;0.68;;;22.70;97.60;;;;;;5235544;28;20324;-52
2021/08/02 10:00:59;;;;;;;1.70;1.15;;;22.80;97.70;;;;;;5244780;28;20198;-52
2021/08/02 10:03:34;;;;;;;2.65;1.35;;;22.90;97.10;;;;;;5234696;28;20236;-50
2021/08/02 10:06:10;;;;;;;2.55;1.00;;;23.00;97.80;;;;;;5232150;28;20518;-53
2021/08/02 10:08:44;;;;;;;3.38;1.42;;;23.20;96.40;;;;;;5246739;28;20260;-49
2021/08/02 10:11:17;;;;;;;3.17;1.10;;;23.20;96.20;;;;;;5240046;28;20291;-56
2021/08/02 10:13:51;;;;;;;4.20;1.00;;;23.00;96.00;;;;;;5237829;28;20240;-52
2021/08/02 10:16:28;;;;;;;3.17;1.20;;;22.80;97.20;;;;;;5246622;28;20231;-55
2021/08/02 10:19:10;;;;;;;3.47;1.30;;;22.40;97.30;;;;;;5237984;28;20307;-55
2021/08/02 10:21:44;;;;;;;3.25;1.33;;;21.80;99.20;;;;;;5239275;28;20625;-58
2021/08/02 10:24:17;;;;;;;4.25;1.10;;;21.30;99.90;;;;;;5231238;28;20334;-57
2021/08/02 10:27:01;;;;;;;2.70;0.93;;;21.00;99.90;;;;;;5236220;28;20535;-58
2021/08/02 10:29:39;;;;;;;6.28;1.33;;;20.40;99.90;;;;;;5247375;28;20228;-55
2021/08/02 10:32:27;;;;;;;4.35;1.25;;;20.00;99.90;;;;;;5231358;28;20197;-53
2021/08/02 10:35:02;;;;;;;13.60;1.30;;;19.90;99.90;;;;;;5223398;28;20202;-56
2021/08/02 10:37:36;;;;;;;4.15;1.20;;;19.80;99.90;;;;;;5240509;28;20262;-57
2021/08/02 10:40:16;;;;;;;4.18;1.40;;;20.10;99.90;;;;;;5231178;28;20247;-51
2021/08/02 10:42:52;;;;;;;3.95;1.30;;;20.30;99.90;;;;;;5237535;28;20223;-54
2021/08/02 10:45:30;;;;;;;6.47;1.90;;;20.60;99.90;;;;;;5243386;28;20217;-53
2021/08/02 10:48:02;;;;;;;4.28;1.52;;;20.80;99.90;;;;;;5235927;28;20213;-60
2021/08/02 10:50:41;;;;;;;5.63;1.10;;;21.00;99.90;;;;;;5235923;28;20212;-51
2021/08/02 10:53:14;;;;;;;3.42;1.10;;;21.20;99.90;;;;;;5232815;28;20194;-53
2021/08/02 10:55:52;;;;;;;2.67;1.02;;;21.40;99.90;;;;;;5243494;28;20224;-57
2021/08/02 10:58:34;;;;;;;3.13;0.90;;;21.60;99.90;;;;;;5249446;28;20240;-56
2021/08/02 11:01:16;;;;;;;3.10;0.90;;;21.80;98.90;;;;;;5236850;28;20225;-54
2021/08/02 11:03:51;;;;;;;5.90;0.98;;;21.90;99.30;;;;;;5237709;28;20681;-60
2021/08/02 11:06:40;;;;;;;4.18;1.20;;;22.00;99.80;;;;;;5230888;28;20224;-55
2021/08/02 11:09:12;;;;;;;3.38;1.00;;;21.80;99.60;;;;;;5229095;28;20643;-58
2021/08/02 11:11:48;;;;;;;4.07;1.00;;;21.60;99.90;;;;;;5242121;28;20224;-57
2021/08/02 11:14:22;;;;;;;5.30;1.00;;;21.70;99.90;;;;;;5248885;28;20606;-58
2021/08/02 11:16:59;;;;;;;3.90;1.33;;;21.80;99.20;;;;;;5213024;28;20702;-61
2021/08/02 11:19:32;;;;;;;2.38;1.00;;;21.90;98.40;;;;;;5230346;28;20219;-61
2021/08/02 11:22:07;;;;;;;3.08;0.80;;;22.20;97.60;;;;;;5250447;28;20764;-63
2021/08/02 11:25:01;;;;;;;3.25;1.30;;;22.20;96.70;;;;;;5248753;28;20208;-54
2021/08/02 11:27:33;;;;;;;3.22;0.88;;;22.20;97.00;;;;;;5237478;28;20303;-57
2021/08/02 11:30:06;;;;;;;2.15;1.00;;;22.20;97.60;;;;;;5211536;28;20212;-60
2021/08/02 11:32:44;;;;;;;3.97;1.13;;;22.20;95.40;;;;;;5231358;28;20591;-56
2021/08/02 11:35:17;;;;;;;2.10;1.15;;;22.20;95.50;;;;;;5226571;28;20197;-57
2021/08/02 11:37:52;;;;;;;3.90;1.10;;;22.10;93.30;;;;;;5227927;28;20252;-60
2021/08/02 11:40:32;;;;;;;8.70;0.90;;;22.10;93.00;;;;;;5211317;28;20263;-54
2021/08/02 11:43:06;;;;;;;2.85;0.88;;;22.10;92.50;;;;;;5227598;28;20229;-53
2021/08/02 11:45:41;;;;;;;7.00;0.98;;;22.10;92.40;;;;;;5227745;28;20210;-55
2021/08/02 11:48:13;;;;;;;6.25;1.38;;;22.10;92.60;;;;;;5210970;28;20220;-58
2021/08/02 11:50:48;;;;;;;3.00;1.17;;;22.10;92.90;;;;;;5214875;28;20198;-55
2021/08/02 11:53:30;;;;;;;4.03;0.93;;;22.00;93.50;;;;;;5227239;28;20221;-54
2021/08/02 11:56:03;;;;;;;3.63;1.05;;;21.70;93.90;;;;;;5226886;28;20209;-52
2021/08/02 11:58:46;;;;;;;2.55;0.70;;;21.40;95.30;;;;;;5245689;28;20247;-49
2021/08/02 12:01:19;;;;;;;1.95;0.80;;;21.20;97.40;;;;;;5238108;28;20203;-54
2021/08/02 12:03:55;;;;;;;2.67;1.02;;;21.00;99.90;;;;;;5244751;28;20248;-55
2021/08/02 12:06:30;;;;;;;2.00;0.88;;;20.70;99.90;;;;;;5233371;28;20190;-54
2021/08/02 12:09:02;;;;;;;2.53;0.95;;;20.30;99.90;;;;;;5226541;28;20228;-49
2021/08/02 12:11:41;;;;;;;2.60;0.75;;;20.10;99.90;;;;;;5237540;28;20224;-54
2021/08/02 12:14:23;;;;;;;7.20;1.60;;;19.90;99.90;;;;;;5241918;28;20220;-51
2021/08/02 12:17:08;;;;;;;2.60;0.90;;;19.80;99.90;;;;;;5234063;28;20188;-54
2021/08/02 12:19:43;;;;;;;5.07;0.90;;;19.60;99.90;;;;;;5237834;28;20201;-56
2021/08/02 12:22:17;;;;;;;4.32;1.30;;;19.50;99.90;;;;;;5244713;28;20275;-56
2021/08/02 12:24:55;;;;;;;5.72;1.08;;;19.40;99.90;;;;;;5229200;28;20565;-50
2021/08/02 12:27:27;;;;;;;3.67;0.70;;;19.40;99.90;;;;;;5239414;28;20522;-56
2021/08/02 12:30:08;;;;;;;3.15;1.10;;;19.40;99.60;;;;;;5248557;28;20232;-55
2021/08/02 12:32:44;;;;;;;3.63;0.90;;;19.50;99.80;;;;;;5232998;28;20220;-45
2021/08/02 12:35:17;;;;;;;2.85;1.10;;;19.60;99.70;;;;;;5223345;28;20225;-55
2021/08/02 12:37:49;;;;;;;6.07;0.90;;;19.80;99.90;;;;;;5241304;28;20212;-53
2021/08/02 12:40:23;;;;;;;2.40;0.80;;;20.10;99.90;;;;;;5212729;28;20229;-56
2021/08/02 12:42:56;;;;;;;4.35;1.05;;;20.40;99.90;;;;;;5227445;28;20213;-53
2021/08/02 12:45:30;;;;;;;4.28;0.93;;;20.60;99.50;;;;;;5227604;28;20233;-47
2021/08/02 12:48:03;;;;;;;3.80;0.80;;;20.80;99.20;;;;;;5227926;28;20228;-49
2021/08/02 12:50:35;;;;;;;4.95;1.05;;;20.80;98.60;;;;;;5247027;28;20221;-55
2021/08/02 12:53:07;;;;;;;1.55;0.80;;;20.70;99.20;;;;;;5240293;28;20201;-55
2021/08/02 12:55:39;;;;;;;4.38;0.73;;;20.80;99.40;;;;;;5237487;28;20220;-53
2021/08/02 12:58:12;;;;;;;4.05;1.20;;;20.70;98.90;;;;;;5243284;28;20236;-53
2021/08/02 13:00:44;;;;;;;4.25;1.10;;;20.90;98.80;;;;;;5215412;28;20221;-57
2021/08/02 13:03:17;;;;;;;2.08;0.90;;;20.80;97.50;;;;;;5240237;28;20205;-55
2021/08/02 13:05:50;;;;;;;3.20;1.20;;;20.70;97.30;;;;;;5240875;28;20311;-56
2021/08/02 13:08:21;;;;;;;3.35;1.08;;;20.60;98.00;;;;;;5245675;28;20227;-56
2021/08/02 13:10:56;;;;;;;2.30;1.13;;;20.60;98.90;;;;;;5243271;28;20716;-54
2021/08/02 13:13:28;;;;;;;5.53;1.10;;;20.60;99.90;;;;;;5230367;28;20201;-54
2021/08/02 13:16:02;;;;;;;3.75;0.93;;;20.60;99.90;;;;;;5232087;28;20668;-57
2021/08/02 13:18:34;;;;;;;4.85;0.98;;;20.70;99.90;;;;;;5248626;28;20568;-52
2021/08/02 13:21:06;;;;;;;2.15;0.68;;;20.70;99.90;;;;;;5206509;28;20629;-56
2021/08/02 13:26:55;;;;;;;3.67;1.20;;;20.70;99.90;;;;;;5241019;28;20205;-56
2021/08/02 13:29:20;;;;;;;3.90;0.85;;;20.60;99.90;;;;;;5253042;28;20220;-57